Light Street, Pennsylvania
Current Conditions -  °F | °C
As of 3:20 AM on Tuesday 27 Jan 2015 (Local Time) from KHZL Reporting Station
Overcast Overcast  
Wind Chill:   Ceiling: 900
Heat Index: 21°   Visibility: 10mi
Dew Point: 18°   Wind: 14mph
Humidity: 86%   Direction: 330°NNW
Pressure: 29.7"   Gusts: 17mph
Location:  41.04°N, 76.42°W
Report Text: KHZL 270820Z AUTO 33012G15KT 10SM OVC009 M06/M08 A2970 RMK AO2
Loading
Personal Weather Stations






























Interactive Weather Map New forecast layout! Learn more

10-Day Weather Forecast

Advertisements
Track Severe Weather on mobile